sensor_id;sensor_type;location;lat;lon;timestamp;P1;durP1;ratioP1;P2;durP2;ratioP2
57325;SDS011;43161;50.950;18.224;2024-03-22T00:01:56;31.50;;;17.10;;
57325;SDS011;43161;50.950;18.224;2024-03-22T00:04:22;31.40;;;17.00;;
57325;SDS011;43161;50.950;18.224;2024-03-22T00:06:48;32.20;;;16.10;;
57325;SDS011;43161;50.950;18.224;2024-03-22T00:09:17;29.80;;;17.00;;
57325;SDS011;43161;50.950;18.224;2024-03-22T00:11:43;31.90;;;17.10;;
57325;SDS011;43161;50.950;18.224;2024-03-22T00:14:09;30.50;;;16.30;;
57325;SDS011;43161;50.950;18.224;2024-03-22T00:16:36;29.60;;;16.40;;
57325;SDS011;43161;50.950;18.224;2024-03-22T00:19:02;29.30;;;16.60;;
57325;SDS011;43161;50.950;18.224;2024-03-22T00:21:27;28.90;;;16.10;;
57325;SDS011;43161;50.950;18.224;2024-03-22T00:23:54;28.80;;;15.10;;
57325;SDS011;43161;50.950;18.224;2024-03-22T00:26:20;28.50;;;15.30;;
57325;SDS011;43161;50.950;18.224;2024-03-22T00:28:46;28.10;;;15.10;;
57325;SDS011;43161;50.950;18.224;2024-03-22T00:31:12;27.40;;;15.80;;
57325;SDS011;43161;50.950;18.224;2024-03-22T00:33:37;28.80;;;16.30;;
57325;SDS011;43161;50.950;18.224;2024-03-22T00:36:03;28.40;;;15.30;;
57325;SDS011;43161;50.950;18.224;2024-03-22T00:38:29;28.10;;;15.50;;
57325;SDS011;43161;50.950;18.224;2024-03-22T00:40:54;27.10;;;15.20;;
57325;SDS011;43161;50.950;18.224;2024-03-22T00:43:20;26.20;;;13.40;;
57325;SDS011;43161;50.950;18.224;2024-03-22T00:45:46;26.40;;;14.40;;
57325;SDS011;43161;50.950;18.224;2024-03-22T00:48:12;27.00;;;14.40;;
57325;SDS011;43161;50.950;18.224;2024-03-22T00:50:37;26.10;;;14.20;;
57325;SDS011;43161;50.950;18.224;2024-03-22T00:53:03;30.30;;;14.80;;
57325;SDS011;43161;50.950;18.224;2024-03-22T00:55:30;27.60;;;15.40;;
57325;SDS011;43161;50.950;18.224;2024-03-22T00:57:56;27.90;;;15.20;;
57325;SDS011;43161;50.950;18.224;2024-03-22T01:00:23;27.20;;;14.60;;
57325;SDS011;43161;50.950;18.224;2024-03-22T01:02:49;27.80;;;15.30;;
57325;SDS011;43161;50.950;18.224;2024-03-22T01:05:15;28.50;;;15.00;;
57325;SDS011;43161;50.950;18.224;2024-03-22T01:07:44;26.30;;;14.70;;
57325;SDS011;43161;50.950;18.224;2024-03-22T01:10:10;26.90;;;14.00;;
57325;SDS011;43161;50.950;18.224;2024-03-22T01:12:36;29.40;;;14.80;;
57325;SDS011;43161;50.950;18.224;2024-03-22T01:15:02;29.20;;;15.10;;
57325;SDS011;43161;50.950;18.224;2024-03-22T01:17:28;28.70;;;15.00;;
57325;SDS011;43161;50.950;18.224;2024-03-22T01:19:54;27.90;;;15.00;;
57325;SDS011;43161;50.950;18.224;2024-03-22T01:22:20;27.00;;;14.50;;
57325;SDS011;43161;50.950;18.224;2024-03-22T01:24:45;31.50;;;17.40;;
57325;SDS011;43161;50.950;18.224;2024-03-22T01:27:11;30.90;;;17.00;;
57325;SDS011;43161;50.950;18.224;2024-03-22T01:29:37;29.90;;;15.60;;
57325;SDS011;43161;50.950;18.224;2024-03-22T01:32:03;30.00;;;16.20;;
57325;SDS011;43161;50.950;18.224;2024-03-22T01:34:28;34.40;;;17.90;;
57325;SDS011;43161;50.950;18.224;2024-03-22T01:36:54;28.30;;;15.60;;
57325;SDS011;43161;50.950;18.224;2024-03-22T01:39:20;32.20;;;16.60;;
57325;SDS011;43161;50.950;18.224;2024-03-22T01:41:49;30.10;;;16.20;;
57325;SDS011;43161;50.950;18.224;2024-03-22T01:44:15;31.20;;;16.40;;
57325;SDS011;43161;50.950;18.224;2024-03-22T01:46:42;31.50;;;17.20;;
57325;SDS011;43161;50.950;18.224;2024-03-22T01:49:09;29.40;;;15.80;;
57325;SDS011;43161;50.950;18.224;2024-03-22T01:51:41;31.10;;;16.90;;
57325;SDS011;43161;50.950;18.224;2024-03-22T01:54:10;30.60;;;16.80;;
57325;SDS011;43161;50.950;18.224;2024-03-22T01:56:36;29.10;;;16.10;;
57325;SDS011;43161;50.950;18.224;2024-03-22T01:59:03;31.70;;;16.50;;
57325;SDS011;43161;50.950;18.224;2024-03-22T02:01:29;30.80;;;17.50;;
57325;SDS011;43161;50.950;18.224;2024-03-22T02:03:55;30.70;;;16.60;;
57325;SDS011;43161;50.950;18.224;2024-03-22T02:06:20;30.40;;;17.70;;
57325;SDS011;43161;50.950;18.224;2024-03-22T02:08:46;33.50;;;17.50;;
57325;SDS011;43161;50.950;18.224;2024-03-22T02:11:11;34.20;;;17.80;;
57325;SDS011;43161;50.950;18.224;2024-03-22T02:13:37;32.90;;;16.60;;
57325;SDS011;43161;50.950;18.224;2024-03-22T02:16:03;33.70;;;20.60;;
57325;SDS011;43161;50.950;18.224;2024-03-22T02:18:29;30.90;;;16.30;;
57325;SDS011;43161;50.950;18.224;2024-03-22T02:20:56;30.30;;;15.60;;
57325;SDS011;43161;50.950;18.224;2024-03-22T02:26:04;31.90;;;15.60;;
57325;SDS011;43161;50.950;18.224;2024-03-22T02:28:30;29.30;;;16.10;;
57325;SDS011;43161;50.950;18.224;2024-03-22T02:30:57;31.00;;;16.50;;
57325;SDS011;43161;50.950;18.224;2024-03-22T02:33:24;30.20;;;15.90;;
57325;SDS011;43161;50.950;18.224;2024-03-22T02:35:50;31.20;;;16.10;;
57325;SDS011;43161;50.950;18.224;2024-03-22T02:38:16;29.20;;;14.30;;
57325;SDS011;43161;50.950;18.224;2024-03-22T02:40:45;30.40;;;14.60;;
57325;SDS011;43161;50.950;18.224;2024-03-22T02:43:12;29.10;;;15.30;;
57325;SDS011;43161;50.950;18.224;2024-03-22T02:45:38;29.20;;;13.60;;
57325;SDS011;43161;50.950;18.224;2024-03-22T02:48:03;30.80;;;14.20;;
57325;SDS011;43161;50.950;18.224;2024-03-22T02:50:33;29.60;;;15.00;;
57325;SDS011;43161;50.950;18.224;2024-03-22T02:52:59;29.00;;;14.90;;
57325;SDS011;43161;50.950;18.224;2024-03-22T02:55:25;30.60;;;15.20;;
57325;SDS011;43161;50.950;18.224;2024-03-22T02:57:50;29.90;;;15.00;;
57325;SDS011;43161;50.950;18.224;2024-03-22T03:00:16;32.20;;;16.10;;
57325;SDS011;43161;50.950;18.224;2024-03-22T03:02:43;30.00;;;15.20;;
57325;SDS011;43161;50.950;18.224;2024-03-22T03:05:10;32.40;;;14.60;;
57325;SDS011;43161;50.950;18.224;2024-03-22T03:07:36;26.70;;;14.50;;
57325;SDS011;43161;50.950;18.224;2024-03-22T03:10:01;27.10;;;15.10;;
57325;SDS011;43161;50.950;18.224;2024-03-22T03:12:27;29.40;;;14.50;;
57325;SDS011;43161;50.950;18.224;2024-03-22T03:14:53;28.20;;;14.50;;
57325;SDS011;43161;50.950;18.224;2024-03-22T03:17:18;29.00;;;15.00;;
57325;SDS011;43161;50.950;18.224;2024-03-22T03:19:44;28.00;;;14.10;;
57325;SDS011;43161;50.950;18.224;2024-03-22T03:22:09;29.40;;;16.20;;
57325;SDS011;43161;50.950;18.224;2024-03-22T03:24:35;29.90;;;15.40;;
57325;SDS011;43161;50.950;18.224;2024-03-22T03:27:00;28.00;;;14.00;;
57325;SDS011;43161;50.950;18.224;2024-03-22T03:29:27;31.90;;;17.70;;
57325;SDS011;43161;50.950;18.224;2024-03-22T03:31:53;28.40;;;14.60;;
57325;SDS011;43161;50.950;18.224;2024-03-22T03:34:18;28.10;;;13.40;;
57325;SDS011;43161;50.950;18.224;2024-03-22T03:36:46;26.30;;;12.80;;
57325;SDS011;43161;50.950;18.224;2024-03-22T03:39:12;27.30;;;13.80;;
57325;SDS011;43161;50.950;18.224;2024-03-22T03:41:37;28.30;;;13.40;;
57325;SDS011;43161;50.950;18.224;2024-03-22T03:44:04;25.90;;;12.00;;
57325;SDS011;43161;50.950;18.224;2024-03-22T03:46:30;28.90;;;13.10;;
57325;SDS011;43161;50.950;18.224;2024-03-22T03:48:56;27.00;;;12.00;;
57325;SDS011;43161;50.950;18.224;2024-03-22T03:51:22;28.50;;;12.20;;
57325;SDS011;43161;50.950;18.224;2024-03-22T03:53:47;27.60;;;12.80;;
57325;SDS011;43161;50.950;18.224;2024-03-22T03:56:13;26.50;;;11.60;;
57325;SDS011;43161;50.950;18.224;2024-03-22T03:58:38;26.80;;;11.80;;
57325;SDS011;43161;50.950;18.224;2024-03-22T04:01:05;25.30;;;10.50;;
57325;SDS011;43161;50.950;18.224;2024-03-22T04:03:31;26.00;;;11.20;;
57325;SDS011;43161;50.950;18.224;2024-03-22T04:05:57;26.30;;;11.40;;
57325;SDS011;43161;50.950;18.224;2024-03-22T04:08:26;23.30;;;10.10;;
57325;SDS011;43161;50.950;18.224;2024-03-22T04:10:55;24.60;;;9.90;;
57325;SDS011;43161;50.950;18.224;2024-03-22T04:13:25;24.40;;;10.50;;
57325;SDS011;43161;50.950;18.224;2024-03-22T04:15:51;25.40;;;10.80;;
57325;SDS011;43161;50.950;18.224;2024-03-22T04:18:18;23.50;;;10.10;;
57325;SDS011;43161;50.950;18.224;2024-03-22T04:20:53;25.60;;;11.10;;
57325;SDS011;43161;50.950;18.224;2024-03-22T04:23:19;24.90;;;10.80;;
57325;SDS011;43161;50.950;18.224;2024-03-22T04:26:03;24.90;;;10.10;;
57325;SDS011;43161;50.950;18.224;2024-03-22T04:28:29;24.00;;;10.00;;
57325;SDS011;43161;50.950;18.224;2024-03-22T04:30:59;23.60;;;9.20;;
57325;SDS011;43161;50.950;18.224;2024-03-22T04:33:26;23.90;;;9.90;;
57325;SDS011;43161;50.950;18.224;2024-03-22T04:35:52;21.70;;;9.20;;
57325;SDS011;43161;50.950;18.224;2024-03-22T04:38:18;24.20;;;10.10;;
57325;SDS011;43161;50.950;18.224;2024-03-22T04:40:44;22.80;;;9.70;;
57325;SDS011;43161;50.950;18.224;2024-03-22T04:43:10;22.50;;;9.40;;
57325;SDS011;43161;50.950;18.224;2024-03-22T04:45:35;23.20;;;9.20;;
57325;SDS011;43161;50.950;18.224;2024-03-22T04:48:01;22.90;;;9.20;;
57325;SDS011;43161;50.950;18.224;2024-03-22T04:50:28;24.80;;;10.90;;
57325;SDS011;43161;50.950;18.224;2024-03-22T04:52:54;24.50;;;9.10;;
57325;SDS011;43161;50.950;18.224;2024-03-22T04:55:20;22.40;;;9.10;;
57325;SDS011;43161;50.950;18.224;2024-03-22T04:57:45;22.40;;;10.10;;
57325;SDS011;43161;50.950;18.224;2024-03-22T05:00:11;22.10;;;10.30;;
57325;SDS011;43161;50.950;18.224;2024-03-22T05:02:38;22.50;;;9.70;;
57325;SDS011;43161;50.950;18.224;2024-03-22T05:05:03;22.80;;;9.60;;
57325;SDS011;43161;50.950;18.224;2024-03-22T05:07:29;24.80;;;9.40;;
57325;SDS011;43161;50.950;18.224;2024-03-22T05:09:55;24.00;;;9.70;;
57325;SDS011;43161;50.950;18.224;2024-03-22T05:12:20;24.10;;;12.10;;
57325;SDS011;43161;50.950;18.224;2024-03-22T05:14:46;23.00;;;9.30;;
57325;SDS011;43161;50.950;18.224;2024-03-22T05:17:11;22.40;;;10.00;;
57325;SDS011;43161;50.950;18.224;2024-03-22T05:19:37;25.30;;;9.60;;
57325;SDS011;43161;50.950;18.224;2024-03-22T05:22:03;25.10;;;10.70;;
57325;SDS011;43161;50.950;18.224;2024-03-22T05:24:29;22.20;;;9.80;;
57325;SDS011;43161;50.950;18.224;2024-03-22T05:26:54;23.50;;;10.40;;
57325;SDS011;43161;50.950;18.224;2024-03-22T05:29:20;23.90;;;9.70;;
57325;SDS011;43161;50.950;18.224;2024-03-22T05:31:47;25.20;;;10.00;;
57325;SDS011;43161;50.950;18.224;2024-03-22T05:34:14;24.30;;;11.10;;
57325;SDS011;43161;50.950;18.224;2024-03-22T05:36:40;26.10;;;11.50;;
57325;SDS011;43161;50.950;18.224;2024-03-22T05:39:06;26.80;;;12.40;;
57325;SDS011;43161;50.950;18.224;2024-03-22T05:41:31;27.10;;;13.00;;
57325;SDS011;43161;50.950;18.224;2024-03-22T05:43:57;28.80;;;12.00;;
57325;SDS011;43161;50.950;18.224;2024-03-22T05:46:23;23.30;;;9.90;;
57325;SDS011;43161;50.950;18.224;2024-03-22T05:48:48;24.00;;;10.20;;
57325;SDS011;43161;50.950;18.224;2024-03-22T05:51:15;28.30;;;12.70;;
57325;SDS011;43161;50.950;18.224;2024-03-22T05:53:41;25.10;;;11.20;;
57325;SDS011;43161;50.950;18.224;2024-03-22T05:56:07;32.00;;;13.80;;
57325;SDS011;43161;50.950;18.224;2024-03-22T05:58:33;28.70;;;11.50;;
57325;SDS011;43161;50.950;18.224;2024-03-22T06:00:59;26.60;;;11.60;;
57325;SDS011;43161;50.950;18.224;2024-03-22T06:03:25;25.70;;;11.90;;
57325;SDS011;43161;50.950;18.224;2024-03-22T06:05:51;25.30;;;11.10;;
57325;SDS011;43161;50.950;18.224;2024-03-22T06:08:20;23.80;;;11.00;;
57325;SDS011;43161;50.950;18.224;2024-03-22T06:10:46;27.00;;;11.00;;
57325;SDS011;43161;50.950;18.224;2024-03-22T06:13:11;26.70;;;11.60;;
57325;SDS011;43161;50.950;18.224;2024-03-22T06:15:37;24.20;;;11.00;;
57325;SDS011;43161;50.950;18.224;2024-03-22T06:18:03;24.00;;;12.00;;
57325;SDS011;43161;50.950;18.224;2024-03-22T06:20:28;23.30;;;10.00;;
57325;SDS011;43161;50.950;18.224;2024-03-22T06:22:55;25.70;;;11.30;;
57325;SDS011;43161;50.950;18.224;2024-03-22T06:25:22;24.70;;;10.90;;
57325;SDS011;43161;50.950;18.224;2024-03-22T06:27:47;23.80;;;11.40;;
57325;SDS011;43161;50.950;18.224;2024-03-22T06:30:13;21.40;;;10.60;;
57325;SDS011;43161;50.950;18.224;2024-03-22T06:32:39;23.40;;;9.80;;
57325;SDS011;43161;50.950;18.224;2024-03-22T06:35:04;22.30;;;10.50;;
57325;SDS011;43161;50.950;18.224;2024-03-22T06:37:30;24.10;;;10.40;;
57325;SDS011;43161;50.950;18.224;2024-03-22T06:39:56;25.10;;;10.90;;
57325;SDS011;43161;50.950;18.224;2024-03-22T06:42:23;23.20;;;10.20;;
57325;SDS011;43161;50.950;18.224;2024-03-22T06:44:49;22.30;;;10.80;;
57325;SDS011;43161;50.950;18.224;2024-03-22T06:47:14;23.20;;;10.30;;
57325;SDS011;43161;50.950;18.224;2024-03-22T06:49:40;21.70;;;9.70;;
57325;SDS011;43161;50.950;18.224;2024-03-22T06:52:06;24.00;;;10.70;;
57325;SDS011;43161;50.950;18.224;2024-03-22T06:54:31;23.50;;;10.40;;
57325;SDS011;43161;50.950;18.224;2024-03-22T06:56:57;22.30;;;9.10;;
57325;SDS011;43161;50.950;18.224;2024-03-22T06:59:23;23.00;;;9.50;;
57325;SDS011;43161;50.950;18.224;2024-03-22T07:01:48;21.20;;;9.80;;
57325;SDS011;43161;50.950;18.224;2024-03-22T07:04:14;20.00;;;9.40;;
57325;SDS011;43161;50.950;18.224;2024-03-22T07:06:40;21.40;;;8.90;;
57325;SDS011;43161;50.950;18.224;2024-03-22T07:09:07;24.00;;;9.50;;
57325;SDS011;43161;50.950;18.224;2024-03-22T07:11:33;21.70;;;9.60;;
57325;SDS011;43161;50.950;18.224;2024-03-22T07:13:58;26.70;;;13.40;;
57325;SDS011;43161;50.950;18.224;2024-03-22T07:16:24;22.90;;;10.70;;
57325;SDS011;43161;50.950;18.224;2024-03-22T07:18:50;23.30;;;11.80;;
57325;SDS011;43161;50.950;18.224;2024-03-22T07:21:15;24.90;;;10.10;;
57325;SDS011;43161;50.950;18.224;2024-03-22T07:23:41;30.00;;;14.60;;
57325;SDS011;43161;50.950;18.224;2024-03-22T07:26:07;27.00;;;14.20;;
57325;SDS011;43161;50.950;18.224;2024-03-22T07:28:33;38.90;;;16.70;;
57325;SDS011;43161;50.950;18.224;2024-03-22T07:30:59;29.40;;;13.60;;
57325;SDS011;43161;50.950;18.224;2024-03-22T07:33:25;25.70;;;13.50;;
57325;SDS011;43161;50.950;18.224;2024-03-22T07:35:50;26.70;;;12.60;;
57325;SDS011;43161;50.950;18.224;2024-03-22T07:38:17;24.20;;;11.30;;
57325;SDS011;43161;50.950;18.224;2024-03-22T07:40:42;22.80;;;11.10;;
57325;SDS011;43161;50.950;18.224;2024-03-22T07:43:08;20.80;;;9.10;;
57325;SDS011;43161;50.950;18.224;2024-03-22T07:45:34;20.40;;;9.60;;
57325;SDS011;43161;50.950;18.224;2024-03-22T07:48:00;22.30;;;10.00;;
57325;SDS011;43161;50.950;18.224;2024-03-22T07:50:25;20.10;;;9.50;;
57325;SDS011;43161;50.950;18.224;2024-03-22T07:52:51;23.00;;;9.40;;
57325;SDS011;43161;50.950;18.224;2024-03-22T07:55:17;41.30;;;15.10;;
57325;SDS011;43161;50.950;18.224;2024-03-22T07:57:43;22.60;;;8.20;;
57325;SDS011;43161;50.950;18.224;2024-03-22T08:00:08;18.20;;;8.10;;
57325;SDS011;43161;50.950;18.224;2024-03-22T08:02:35;20.80;;;8.00;;
57325;SDS011;43161;50.950;18.224;2024-03-22T08:05:01;19.50;;;8.10;;
57325;SDS011;43161;50.950;18.224;2024-03-22T08:07:27;19.20;;;7.80;;
57325;SDS011;43161;50.950;18.224;2024-03-22T08:09:53;20.20;;;9.60;;
57325;SDS011;43161;50.950;18.224;2024-03-22T08:12:21;20.50;;;8.30;;
57325;SDS011;43161;50.950;18.224;2024-03-22T08:14:47;19.00;;;8.90;;
57325;SDS011;43161;50.950;18.224;2024-03-22T08:17:12;16.30;;;7.00;;
57325;SDS011;43161;50.950;18.224;2024-03-22T08:19:38;15.10;;;6.80;;
57325;SDS011;43161;50.950;18.224;2024-03-22T08:22:04;17.40;;;6.80;;
57325;SDS011;43161;50.950;18.224;2024-03-22T08:24:29;17.80;;;7.90;;
57325;SDS011;43161;50.950;18.224;2024-03-22T08:26:55;18.20;;;7.80;;
57325;SDS011;43161;50.950;18.224;2024-03-22T08:29:21;21.10;;;8.10;;
57325;SDS011;43161;50.950;18.224;2024-03-22T08:31:47;15.20;;;7.00;;
57325;SDS011;43161;50.950;18.224;2024-03-22T08:34:13;36.00;;;17.80;;
57325;SDS011;43161;50.950;18.224;2024-03-22T08:36:38;27.50;;;13.80;;
57325;SDS011;43161;50.950;18.224;2024-03-22T08:39:04;74.70;;;33.40;;
57325;SDS011;43161;50.950;18.224;2024-03-22T08:41:32;44.70;;;22.40;;
57325;SDS011;43161;50.950;18.224;2024-03-22T08:43:57;37.10;;;17.80;;
57325;SDS011;43161;50.950;18.224;2024-03-22T08:46:23;21.70;;;10.70;;
57325;SDS011;43161;50.950;18.224;2024-03-22T08:48:50;16.70;;;8.50;;
57325;SDS011;43161;50.950;18.224;2024-03-22T08:51:15;18.10;;;7.90;;
57325;SDS011;43161;50.950;18.224;2024-03-22T08:53:41;16.80;;;6.10;;
57325;SDS011;43161;50.950;18.224;2024-03-22T08:56:07;16.60;;;7.10;;
57325;SDS011;43161;50.950;18.224;2024-03-22T08:58:33;17.40;;;7.60;;
57325;SDS011;43161;50.950;18.224;2024-03-22T09:00:58;16.60;;;6.30;;
57325;SDS011;43161;50.950;18.224;2024-03-22T09:03:24;17.40;;;7.00;;
57325;SDS011;43161;50.950;18.224;2024-03-22T09:05:53;18.80;;;9.40;;
57325;SDS011;43161;50.950;18.224;2024-03-22T09:08:19;18.60;;;7.90;;
57325;SDS011;43161;50.950;18.224;2024-03-22T09:10:47;19.50;;;7.90;;
57325;SDS011;43161;50.950;18.224;2024-03-22T09:13:13;20.90;;;8.00;;
57325;SDS011;43161;50.950;18.224;2024-03-22T09:15:39;20.20;;;8.90;;
57325;SDS011;43161;50.950;18.224;2024-03-22T09:18:05;18.20;;;8.20;;
57325;SDS011;43161;50.950;18.224;2024-03-22T09:20:30;17.00;;;7.40;;
57325;SDS011;43161;50.950;18.224;2024-03-22T09:22:56;18.60;;;8.50;;
57325;SDS011;43161;50.950;18.224;2024-03-22T09:25:23;18.10;;;7.80;;
57325;SDS011;43161;50.950;18.224;2024-03-22T09:27:49;19.60;;;9.30;;
57325;SDS011;43161;50.950;18.224;2024-03-22T09:30:15;19.50;;;9.20;;
57325;SDS011;43161;50.950;18.224;2024-03-22T09:32:41;21.10;;;9.50;;
57325;SDS011;43161;50.950;18.224;2024-03-22T09:35:08;19.30;;;8.20;;
57325;SDS011;43161;50.950;18.224;2024-03-22T09:37:35;19.40;;;8.60;;
57325;SDS011;43161;50.950;18.224;2024-03-22T09:40:01;17.40;;;8.10;;
57325;SDS011;43161;50.950;18.224;2024-03-22T09:42:32;17.90;;;8.20;;
57325;SDS011;43161;50.950;18.224;2024-03-22T09:44:58;17.30;;;7.40;;
57325;SDS011;43161;50.950;18.224;2024-03-22T09:47:24;20.10;;;8.40;;
57325;SDS011;43161;50.950;18.224;2024-03-22T09:49:50;16.30;;;7.20;;
57325;SDS011;43161;50.950;18.224;2024-03-22T09:52:18;15.90;;;7.30;;
57325;SDS011;43161;50.950;18.224;2024-03-22T09:54:45;17.20;;;6.60;;
57325;SDS011;43161;50.950;18.224;2024-03-22T09:57:13;17.30;;;7.60;;
57325;SDS011;43161;50.950;18.224;2024-03-22T09:59:44;15.60;;;7.30;;
57325;SDS011;43161;50.950;18.224;2024-03-22T10:02:11;18.20;;;7.50;;
57325;SDS011;43161;50.950;18.224;2024-03-22T10:04:38;22.90;;;9.60;;
57325;SDS011;43161;50.950;18.224;2024-03-22T10:07:04;21.60;;;10.80;;
57325;SDS011;43161;50.950;18.224;2024-03-22T10:09:30;17.60;;;9.70;;
57325;SDS011;43161;50.950;18.224;2024-03-22T10:11:56;24.80;;;12.60;;
57325;SDS011;43161;50.950;18.224;2024-03-22T10:14:22;19.20;;;9.50;;
57325;SDS011;43161;50.950;18.224;2024-03-22T10:16:52;18.40;;;8.90;;
57325;SDS011;43161;50.950;18.224;2024-03-22T10:19:22;18.80;;;8.80;;
57325;SDS011;43161;50.950;18.224;2024-03-22T10:24:30;20.70;;;10.90;;
57325;SDS011;43161;50.950;18.224;2024-03-22T10:26:58;20.70;;;11.00;;
57325;SDS011;43161;50.950;18.224;2024-03-22T10:29:24;21.80;;;11.20;;
57325;SDS011;43161;50.950;18.224;2024-03-22T10:31:51;21.10;;;10.30;;
57325;SDS011;43161;50.950;18.224;2024-03-22T10:34:17;19.80;;;10.60;;
57325;SDS011;43161;50.950;18.224;2024-03-22T10:36:43;22.70;;;11.00;;
57325;SDS011;43161;50.950;18.224;2024-03-22T10:39:09;20.00;;;8.90;;
57325;SDS011;43161;50.950;18.224;2024-03-22T10:41:36;24.30;;;12.20;;
57325;SDS011;43161;50.950;18.224;2024-03-22T10:44:01;23.80;;;12.80;;
57325;SDS011;43161;50.950;18.224;2024-03-22T10:46:29;19.20;;;8.50;;
57325;SDS011;43161;50.950;18.224;2024-03-22T10:48:55;20.20;;;10.10;;
57325;SDS011;43161;50.950;18.224;2024-03-22T10:51:23;22.40;;;9.30;;
57325;SDS011;43161;50.950;18.224;2024-03-22T10:53:50;19.20;;;9.60;;
57325;SDS011;43161;50.950;18.224;2024-03-22T10:56:17;19.90;;;10.20;;
57325;SDS011;43161;50.950;18.224;2024-03-22T10:58:43;18.00;;;8.90;;
57325;SDS011;43161;50.950;18.224;2024-03-22T11:04:02;20.00;;;9.30;;
57325;SDS011;43161;50.950;18.224;2024-03-22T11:06:30;21.50;;;11.40;;
57325;SDS011;43161;50.950;18.224;2024-03-22T11:08:58;21.10;;;11.30;;
57325;SDS011;43161;50.950;18.224;2024-03-22T11:11:28;15.80;;;6.80;;
57325;SDS011;43161;50.950;18.224;2024-03-22T11:13:54;17.90;;;8.70;;
57325;SDS011;43161;50.950;18.224;2024-03-22T11:16:21;18.90;;;8.80;;
57325;SDS011;43161;50.950;18.224;2024-03-22T11:18:47;17.10;;;7.80;;
57325;SDS011;43161;50.950;18.224;2024-03-22T11:21:17;17.70;;;7.80;;
57325;SDS011;43161;50.950;18.224;2024-03-22T11:23:46;17.80;;;8.50;;
57325;SDS011;43161;50.950;18.224;2024-03-22T11:26:12;18.10;;;9.10;;
57325;SDS011;43161;50.950;18.224;2024-03-22T11:28:38;18.00;;;7.20;;
57325;SDS011;43161;50.950;18.224;2024-03-22T11:31:04;16.60;;;7.90;;
57325;SDS011;43161;50.950;18.224;2024-03-22T11:33:30;16.40;;;7.90;;
57325;SDS011;43161;50.950;18.224;2024-03-22T11:35:59;16.90;;;8.30;;
57325;SDS011;43161;50.950;18.224;2024-03-22T11:38:28;15.70;;;7.00;;
57325;SDS011;43161;50.950;18.224;2024-03-22T11:40:55;18.00;;;7.40;;
57325;SDS011;43161;50.950;18.224;2024-03-22T11:43:23;17.00;;;8.30;;
57325;SDS011;43161;50.950;18.224;2024-03-22T11:45:48;17.60;;;8.00;;
57325;SDS011;43161;50.950;18.224;2024-03-22T11:48:14;21.70;;;11.20;;
57325;SDS011;43161;50.950;18.224;2024-03-22T11:50:40;18.60;;;9.60;;
57325;SDS011;43161;50.950;18.224;2024-03-22T11:53:05;17.40;;;7.70;;
57325;SDS011;43161;50.950;18.224;2024-03-22T11:55:31;17.00;;;7.90;;
57325;SDS011;43161;50.950;18.224;2024-03-22T11:57:57;16.90;;;8.50;;
57325;SDS011;43161;50.950;18.224;2024-03-22T12:00:23;15.70;;;8.20;;
57325;SDS011;43161;50.950;18.224;2024-03-22T12:02:50;17.90;;;9.40;;
57325;SDS011;43161;50.950;18.224;2024-03-22T12:05:22;18.80;;;9.10;;
57325;SDS011;43161;50.950;18.224;2024-03-22T12:07:48;19.30;;;10.40;;
57325;SDS011;43161;50.950;18.224;2024-03-22T12:10:13;16.10;;;8.60;;
57325;SDS011;43161;50.950;18.224;2024-03-22T12:12:39;16.90;;;7.40;;
57325;SDS011;43161;50.950;18.224;2024-03-22T12:15:05;18.70;;;8.50;;
57325;SDS011;43161;50.950;18.224;2024-03-22T12:17:31;18.00;;;9.70;;
57325;SDS011;43161;50.950;18.224;2024-03-22T12:19:56;17.20;;;10.20;;
57325;SDS011;43161;50.950;18.224;2024-03-22T12:22:22;20.10;;;10.70;;
57325;SDS011;43161;50.950;18.224;2024-03-22T12:24:48;16.90;;;9.30;;
57325;SDS011;43161;50.950;18.224;2024-03-22T12:27:13;18.20;;;10.00;;
57325;SDS011;43161;50.950;18.224;2024-03-22T12:29:39;19.70;;;10.00;;
57325;SDS011;43161;50.950;18.224;2024-03-22T12:32:04;20.00;;;10.30;;
57325;SDS011;43161;50.950;18.224;2024-03-22T12:34:30;19.00;;;9.60;;
57325;SDS011;43161;50.950;18.224;2024-03-22T12:36:58;17.30;;;9.00;;
57325;SDS011;43161;50.950;18.224;2024-03-22T12:39:24;17.70;;;9.90;;
57325;SDS011;43161;50.950;18.224;2024-03-22T12:41:49;18.10;;;8.70;;
57325;SDS011;43161;50.950;18.224;2024-03-22T12:44:15;19.00;;;9.90;;
57325;SDS011;43161;50.950;18.224;2024-03-22T12:46:41;17.10;;;8.30;;
57325;SDS011;43161;50.950;18.224;2024-03-22T12:49:08;17.90;;;9.50;;
57325;SDS011;43161;50.950;18.224;2024-03-22T12:51:35;17.60;;;8.30;;
57325;SDS011;43161;50.950;18.224;2024-03-22T12:54:01;18.10;;;10.30;;
57325;SDS011;43161;50.950;18.224;2024-03-22T12:56:27;17.20;;;9.60;;
57325;SDS011;43161;50.950;18.224;2024-03-22T12:58:52;16.50;;;10.00;;
57325;SDS011;43161;50.950;18.224;2024-03-22T13:01:18;20.40;;;9.20;;
57325;SDS011;43161;50.950;18.224;2024-03-22T13:03:44;17.40;;;8.10;;
57325;SDS011;43161;50.950;18.224;2024-03-22T13:06:09;17.60;;;9.80;;
57325;SDS011;43161;50.950;18.224;2024-03-22T13:08:35;17.80;;;10.20;;
57325;SDS011;43161;50.950;18.224;2024-03-22T13:11:01;16.80;;;9.40;;
57325;SDS011;43161;50.950;18.224;2024-03-22T13:13:27;17.70;;;8.80;;
57325;SDS011;43161;50.950;18.224;2024-03-22T13:15:52;16.20;;;8.80;;
57325;SDS011;43161;50.950;18.224;2024-03-22T13:18:18;19.00;;;10.10;;
57325;SDS011;43161;50.950;18.224;2024-03-22T13:20:46;14.90;;;7.10;;
57325;SDS011;43161;50.950;18.224;2024-03-22T13:23:12;16.00;;;7.50;;
57325;SDS011;43161;50.950;18.224;2024-03-22T13:25:38;15.40;;;8.40;;
57325;SDS011;43161;50.950;18.224;2024-03-22T13:28:04;15.30;;;7.70;;
57325;SDS011;43161;50.950;18.224;2024-03-22T13:30:33;14.50;;;7.20;;
57325;SDS011;43161;50.950;18.224;2024-03-22T13:33:00;15.50;;;7.70;;
57325;SDS011;43161;50.950;18.224;2024-03-22T13:35:26;15.70;;;8.80;;
57325;SDS011;43161;50.950;18.224;2024-03-22T13:37:52;16.60;;;7.70;;
57325;SDS011;43161;50.950;18.224;2024-03-22T13:40:18;19.20;;;7.40;;
57325;SDS011;43161;50.950;18.224;2024-03-22T13:42:44;14.40;;;6.40;;
57325;SDS011;43161;50.950;18.224;2024-03-22T13:45:09;16.10;;;8.80;;
57325;SDS011;43161;50.950;18.224;2024-03-22T13:47:35;14.70;;;7.90;;
57325;SDS011;43161;50.950;18.224;2024-03-22T13:50:03;14.30;;;7.30;;
57325;SDS011;43161;50.950;18.224;2024-03-22T13:52:30;14.00;;;7.20;;
57325;SDS011;43161;50.950;18.224;2024-03-22T13:54:56;15.20;;;8.20;;
57325;SDS011;43161;50.950;18.224;2024-03-22T13:57:22;15.10;;;7.80;;
57325;SDS011;43161;50.950;18.224;2024-03-22T13:59:51;15.00;;;7.60;;
57325;SDS011;43161;50.950;18.224;2024-03-22T14:02:17;16.50;;;7.60;;
57325;SDS011;43161;50.950;18.224;2024-03-22T14:04:42;15.00;;;7.20;;
57325;SDS011;43161;50.950;18.224;2024-03-22T14:07:08;15.00;;;7.90;;
57325;SDS011;43161;50.950;18.224;2024-03-22T14:09:34;15.20;;;7.80;;
57325;SDS011;43161;50.950;18.224;2024-03-22T14:12:01;14.50;;;6.70;;
57325;SDS011;43161;50.950;18.224;2024-03-22T14:14:27;13.40;;;6.40;;
57325;SDS011;43161;50.950;18.224;2024-03-22T14:16:52;13.30;;;6.30;;